Terminal Aerodrome Forecast
Issued by NWS

Home | Current Version | Previous Version | Text Only | Print | Product List | Glossary On
Versions: 1 2 3 4 5 6 7 8 9 10 11 12
000
FTUS42 KMLB 241100
TAFLEE
TAF
KLEE 241137Z 2412/2512 02007KT P6SM SKC
     FM241500 05009KT P6SM FEW035
     FM250000 02006KT P6SM FEW250=

USA.gov is the U.S. government's official web portal to all federal, state and local government web resources and services.